Delburne, Canada
Current Conditions -  °F | °C
As of 2:00 AM on Wednesday 26 Nov 2014 (Local Time) from CYQF Reporting Station
Light Snow Light Snow  
Wind Chill: -10°   Ceiling: 7000
Heat Index: -6°   Visibility: 10mi
Dew Point: -8°   Wind: 6mph
Humidity: 86%   Direction: 190°S
Pressure: 30.13"   Gusts: NA
Location:  52.2°N, 113.23°W
Report Text: CYQF 260900Z 19005KT 10SM -SN BKN070 OVC100 M06/M08 A3013 RMK AC6AC2 SLP254
Loading
Personal Weather Stations






























Interactive Weather Map New forecast layout! Learn more

10-Day Weather Forecast

Advertisements
Track Severe Weather on mobile